createdAt,value
2018-06-15T00:01:35.690Z,62.38
2018-06-15T00:04:11.029Z,62.38
2018-06-15T00:06:44.340Z,62.17
2018-06-15T00:09:17.712Z,61.97
2018-06-15T00:11:51.440Z,62.06
2018-06-15T00:14:24.813Z,62.12
2018-06-15T00:16:58.165Z,62.37
2018-06-15T00:19:31.515Z,62.00
2018-06-15T00:22:04.846Z,61.92
2018-06-15T00:24:38.203Z,62.01
2018-06-15T00:27:11.561Z,62.66
2018-06-15T00:29:44.893Z,62.44
2018-06-15T00:32:18.196Z,62.21
2018-06-15T00:34:51.530Z,62.39
2018-06-15T00:37:24.827Z,62.99
2018-06-15T00:39:58.176Z,62.39
2018-06-15T00:42:31.504Z,62.79
2018-06-15T00:45:04.853Z,62.31
2018-06-15T00:47:38.150Z,62.58
2018-06-15T00:50:11.484Z,62.60
2018-06-15T00:52:44.778Z,62.51
2018-06-15T00:55:18.113Z,62.87
2018-06-15T00:57:51.452Z,62.57
2018-06-15T01:00:24.806Z,63.31
2018-06-15T01:02:58.180Z,62.56
2018-06-15T01:05:31.536Z,62.84
2018-06-15T01:08:04.976Z,62.44
2018-06-15T01:10:38.309Z,62.29
2018-06-15T01:13:11.631Z,62.70
2018-06-15T01:15:45.051Z,62.89
2018-06-15T01:18:18.424Z,63.09
2018-06-15T01:20:51.856Z,63.01
2018-06-15T01:23:25.229Z,62.89
2018-06-15T01:25:58.557Z,62.81
2018-06-15T01:28:32.030Z,63.04
2018-06-15T01:31:05.361Z,63.35
2018-06-15T01:33:38.698Z,62.86
2018-06-15T01:36:12.176Z,62.76
2018-06-15T01:38:45.516Z,62.47
2018-06-15T01:41:18.828Z,62.67
2018-06-15T01:43:52.209Z,62.65
2018-06-15T01:46:25.587Z,62.22
2018-06-15T01:48:58.937Z,62.19
2018-06-15T01:51:32.256Z,62.28
2018-06-15T01:54:05.653Z,62.20
2018-06-15T01:56:39.237Z,62.15
2018-06-15T01:59:12.593Z,62.42
2018-06-15T02:01:46.064Z,62.38
2018-06-15T02:04:19.389Z,62.05
2018-06-15T02:06:52.819Z,62.24
2018-06-15T02:09:26.309Z,62.55
2018-06-15T02:11:59.684Z,62.43
2018-06-15T02:14:32.976Z,62.77
2018-06-15T02:17:06.393Z,62.63
2018-06-15T02:19:39.913Z,62.24
2018-06-15T02:22:13.274Z,62.56
2018-06-15T02:24:46.628Z,62.76
2018-06-15T02:27:20.030Z,63.43
2018-06-15T02:29:53.478Z,63.31
2018-06-15T02:32:26.844Z,62.72
2018-06-15T02:35:00.189Z,62.78
2018-06-15T02:37:33.540Z,62.82
2018-06-15T02:40:06.882Z,63.14
2018-06-15T02:42:40.355Z,62.71
2018-06-15T02:45:13.741Z,62.83
2018-06-15T02:47:47.187Z,62.94
2018-06-15T02:50:21.605Z,63.08
2018-06-15T02:52:54.934Z,62.80
2018-06-15T02:55:28.380Z,62.97
2018-06-15T02:58:01.748Z,63.34
2018-06-15T03:00:35.068Z,62.92
2018-06-15T03:03:08.426Z,63.05
2018-06-15T03:05:41.740Z,63.20
2018-06-15T03:08:15.113Z,63.55
2018-06-15T03:10:48.491Z,63.50
2018-06-15T03:13:21.812Z,63.39
2018-06-15T03:15:55.233Z,63.55
2018-06-15T03:18:28.584Z,63.28
2018-06-15T03:21:01.947Z,62.86
2018-06-15T03:23:35.258Z,63.06
2018-06-15T03:26:08.593Z,63.04
2018-06-15T03:28:41.935Z,62.91
2018-06-15T03:31:15.285Z,63.10
2018-06-15T03:33:48.600Z,63.44
2018-06-15T03:36:21.918Z,63.15
2018-06-15T03:38:55.224Z,63.39
2018-06-15T03:41:28.725Z,63.24
2018-06-15T03:44:02.035Z,63.02
2018-06-15T03:46:36.001Z,62.88
2018-06-15T03:49:09.316Z,63.10
2018-06-15T03:51:42.666Z,62.86
2018-06-15T03:54:15.960Z,63.25
2018-06-15T03:56:49.303Z,62.52
2018-06-15T03:59:22.604Z,62.61
2018-06-15T04:01:55.953Z,62.75
2018-06-15T04:04:29.265Z,62.72
2018-06-15T04:07:02.606Z,62.71
2018-06-15T04:09:35.922Z,62.57
2018-06-15T04:12:09.277Z,62.61
2018-06-15T04:14:42.585Z,62.54
2018-06-15T04:17:17.001Z,63.15
2018-06-15T04:19:50.326Z,62.75
2018-06-15T04:22:23.656Z,62.96
2018-06-15T04:24:56.973Z,62.81
2018-06-15T04:27:30.369Z,62.82
2018-06-15T04:30:03.688Z,63.03
2018-06-15T04:32:37.045Z,63.01
2018-06-15T04:35:10.356Z,63.05
2018-06-15T04:37:43.668Z,63.11
2018-06-15T04:40:16.988Z,62.85
2018-06-15T04:42:50.337Z,63.07
2018-06-15T04:45:23.636Z,63.09
2018-06-15T04:47:57.070Z,63.23
2018-06-15T04:50:30.453Z,62.76
2018-06-15T04:53:03.768Z,62.83
2018-06-15T04:55:37.138Z,62.40
2018-06-15T04:58:10.471Z,62.37
2018-06-15T05:00:43.882Z,61.99
2018-06-15T05:03:17.230Z,62.25
2018-06-15T05:05:50.563Z,62.31
2018-06-15T05:08:23.892Z,61.91
2018-06-15T05:10:57.317Z,62.33
2018-06-15T05:13:30.664Z,61.70
2018-06-15T05:16:04.086Z,61.80
2018-06-15T05:18:37.458Z,61.59
2018-06-15T05:21:10.785Z,61.90
2018-06-15T05:23:44.217Z,61.18
2018-06-15T05:26:17.540Z,60.66
2018-06-15T05:28:50.856Z,60.46
2018-06-15T05:31:24.216Z,61.05
2018-06-15T05:33:57.681Z,60.96
2018-06-15T05:36:33.045Z,60.73
2018-06-15T05:39:08.748Z,61.08
2018-06-15T05:41:42.377Z,61.22
2018-06-15T05:44:15.754Z,60.88
2018-06-15T05:46:49.052Z,60.28
2018-06-15T05:49:22.408Z,60.31
2018-06-15T05:51:56.894Z,60.05
2018-06-15T05:54:30.225Z,59.69
2018-06-15T05:57:03.525Z,59.92
2018-06-15T05:59:36.884Z,59.76
2018-06-15T06:02:10.196Z,59.28
2018-06-15T06:04:43.554Z,59.68
2018-06-15T06:07:16.925Z,59.46
2018-06-15T06:09:50.278Z,59.20
2018-06-15T06:12:23.584Z,58.35
2018-06-15T06:14:56.914Z,57.82
2018-06-15T06:17:30.257Z,57.92
2018-06-15T06:20:03.689Z,57.35
2018-06-15T06:22:37.068Z,57.84
2018-06-15T06:25:10.392Z,57.56
2018-06-15T06:27:43.685Z,56.98
2018-06-15T06:30:17.027Z,56.60
2018-06-15T06:32:50.326Z,56.50
2018-06-15T06:35:23.645Z,56.08
2018-06-15T06:37:57.015Z,55.10
2018-06-15T06:40:30.315Z,56.38
2018-06-15T06:43:03.622Z,55.65
2018-06-15T06:45:36.937Z,55.91
2018-06-15T06:48:10.248Z,56.02
2018-06-15T06:50:43.571Z,55.83
2018-06-15T06:53:16.925Z,54.91
2018-06-15T06:55:50.273Z,54.94
2018-06-15T06:58:23.588Z,55.17
2018-06-15T07:00:57.080Z,55.33
2018-06-15T07:03:30.414Z,55.31
2018-06-15T07:06:03.740Z,55.09
2018-06-15T07:08:37.069Z,53.59
2018-06-15T07:11:10.468Z,53.64
2018-06-15T07:13:43.796Z,51.72
2018-06-15T07:16:17.156Z,51.58
2018-06-15T07:18:50.472Z,51.53
2018-06-15T07:21:23.815Z,51.27
2018-06-15T07:23:57.100Z,52.09
2018-06-15T07:26:30.440Z,51.18
2018-06-15T07:29:03.784Z,51.10
2018-06-15T07:31:37.096Z,50.26
2018-06-15T07:34:10.441Z,50.23
2018-06-15T07:36:43.766Z,48.91
2018-06-15T07:39:17.108Z,49.61
2018-06-15T07:41:50.444Z,49.62
2018-06-15T07:44:23.763Z,48.07
2018-06-15T07:46:57.190Z,47.94
2018-06-15T07:49:30.490Z,47.36
2018-06-15T07:52:03.813Z,47.72
2018-06-15T07:54:37.124Z,48.75
2018-06-15T07:57:10.456Z,48.11
2018-06-15T07:59:43.830Z,48.29
2018-06-15T08:02:17.080Z,49.15
2018-06-15T08:04:50.395Z,49.31
2018-06-15T08:07:23.715Z,49.09
2018-06-15T08:09:57.011Z,48.70
2018-06-15T08:12:30.328Z,48.53
2018-06-15T08:15:03.649Z,48.05
2018-06-15T08:17:37.005Z,46.87
2018-06-15T08:20:10.318Z,47.29
2018-06-15T08:22:43.641Z,47.25
2018-06-15T08:25:16.951Z,46.44
2018-06-15T08:27:50.296Z,45.98
2018-06-15T08:30:23.584Z,45.67
2018-06-15T08:32:56.980Z,46.79
2018-06-15T08:35:30.284Z,46.25
2018-06-15T08:38:03.611Z,46.01
2018-06-15T08:40:36.925Z,46.15
2018-06-15T08:43:10.244Z,45.63
2018-06-15T08:45:43.561Z,45.04
2018-06-15T08:48:16.949Z,44.23
2018-06-15T08:50:50.261Z,44.49
2018-06-15T08:53:23.589Z,44.92
2018-06-15T08:55:56.868Z,43.87
2018-06-15T08:58:30.222Z,45.38
2018-06-15T09:01:03.512Z,43.60
2018-06-15T09:03:36.809Z,42.18
2018-06-15T09:06:10.134Z,41.57
2018-06-15T09:08:43.454Z,44.04
2018-06-15T09:11:16.766Z,45.59
2018-06-15T09:13:50.076Z,42.93
2018-06-15T09:16:23.504Z,44.29
2018-06-15T09:18:56.834Z,42.28
2018-06-15T09:21:30.220Z,43.17
2018-06-15T09:24:03.535Z,42.47
2018-06-15T09:26:36.825Z,42.45
2018-06-15T09:29:10.125Z,42.32
2018-06-15T09:31:43.442Z,42.33
2018-06-15T09:34:16.756Z,42.36
2018-06-15T09:36:50.049Z,42.44
2018-06-15T09:39:23.423Z,38.98
2018-06-15T09:41:56.711Z,38.14
2018-06-15T09:44:30.084Z,38.65
2018-06-15T09:47:03.385Z,38.21
2018-06-15T09:49:36.716Z,37.81
2018-06-15T09:52:10.061Z,38.79
2018-06-15T09:54:43.408Z,37.99
2018-06-15T09:57:16.702Z,36.67
2018-06-15T09:59:50.032Z,38.59
2018-06-15T10:02:23.337Z,38.22
2018-06-15T10:04:56.648Z,38.25
2018-06-15T10:07:29.937Z,37.64
2018-06-15T10:10:03.275Z,38.00
2018-06-15T10:12:36.569Z,36.87
2018-06-15T10:15:09.889Z,36.21
2018-06-15T10:17:43.193Z,36.98
2018-06-15T10:20:16.519Z,37.42
2018-06-15T10:22:49.841Z,37.43
2018-06-15T10:25:23.151Z,37.01
2018-06-15T10:27:56.490Z,37.99
2018-06-15T10:30:29.832Z,37.03
2018-06-15T10:33:03.152Z,36.13
2018-06-15T10:35:36.486Z,37.29
2018-06-15T10:38:10.073Z,36.08
2018-06-15T10:40:43.383Z,36.42
2018-06-15T10:43:16.687Z,37.04
2018-06-15T10:45:50.018Z,35.08
2018-06-15T10:48:23.339Z,35.97
2018-06-15T10:50:56.652Z,35.55
2018-06-15T10:53:29.948Z,36.19
2018-06-15T10:56:03.250Z,36.39
2018-06-15T10:58:36.571Z,37.01
2018-06-15T11:01:09.896Z,37.65
2018-06-15T11:03:43.176Z,36.76
2018-06-15T11:06:16.485Z,36.09
2018-06-15T11:08:49.780Z,36.26
2018-06-15T11:11:23.132Z,36.06
2018-06-15T11:13:56.416Z,34.70
2018-06-15T11:16:29.728Z,33.75
2018-06-15T11:19:03.089Z,36.01
2018-06-15T11:21:36.418Z,35.08
2018-06-15T11:24:09.729Z,35.45
2018-06-15T11:26:49.645Z,35.40
2018-06-15T11:29:22.965Z,36.00
2018-06-15T11:31:56.274Z,34.91
2018-06-15T11:34:30.534Z,35.02
2018-06-15T11:37:03.859Z,35.48
2018-06-15T11:39:37.197Z,35.96
2018-06-15T11:42:10.493Z,34.82
2018-06-15T11:44:43.810Z,33.69
2018-06-15T11:47:17.117Z,34.97
2018-06-15T11:49:50.446Z,35.28
2018-06-15T11:52:23.748Z,34.88
2018-06-15T11:54:57.088Z,33.01
2018-06-15T11:57:30.543Z,33.24
2018-06-15T12:00:03.897Z,34.09
2018-06-15T12:02:37.192Z,34.89
2018-06-15T12:05:10.578Z,35.53
2018-06-15T12:07:43.887Z,32.55
2018-06-15T12:10:17.190Z,32.07
2018-06-15T12:12:50.525Z,31.43
2018-06-15T12:15:23.866Z,31.37
2018-06-15T12:17:57.192Z,29.82
2018-06-15T12:20:30.528Z,30.28
2018-06-15T12:23:03.832Z,30.08
2018-06-15T12:25:37.149Z,30.23
2018-06-15T12:28:10.792Z,29.00
2018-06-15T12:30:44.126Z,30.20
2018-06-15T12:33:17.439Z,29.53
2018-06-15T12:35:50.744Z,28.10
2018-06-15T12:38:24.280Z,29.71
2018-06-15T12:40:57.608Z,29.65
2018-06-15T12:43:30.945Z,28.36
2018-06-15T12:46:04.408Z,29.69
2018-06-15T12:48:37.596Z,29.84
2018-06-15T12:51:11.786Z,29.17
2018-06-15T12:53:47.174Z,31.60
2018-06-15T12:56:20.513Z,31.08
2018-06-15T12:58:53.808Z,29.66
2018-06-15T13:01:27.137Z,28.62
2018-06-15T13:04:00.432Z,29.23
2018-06-15T13:06:33.762Z,29.23
2018-06-15T13:09:08.374Z,27.47
2018-06-15T13:11:41.693Z,28.95
2018-06-15T13:14:15.001Z,27.47
2018-06-15T13:16:48.400Z,28.79
2018-06-15T13:19:21.704Z,27.71
2018-06-15T13:21:55.045Z,27.63
2018-06-15T13:24:32.443Z,28.80
2018-06-15T13:27:05.784Z,29.04
2018-06-15T13:29:39.089Z,28.67
2018-06-15T13:32:12.403Z,26.92
2018-06-15T13:34:45.701Z,29.19
2018-06-15T13:37:19.050Z,27.02
2018-06-15T13:39:52.429Z,27.90
2018-06-15T13:42:25.841Z,26.67
2018-06-15T13:44:59.734Z,26.16
2018-06-15T13:47:33.049Z,26.60
2018-06-15T13:50:06.345Z,26.50
2018-06-15T13:52:39.664Z,25.46
2018-06-15T13:55:12.968Z,26.21
2018-06-15T13:57:46.305Z,26.36
2018-06-15T14:00:19.633Z,26.76
2018-06-15T14:02:52.962Z,27.13
2018-06-15T14:05:26.265Z,28.10
2018-06-15T14:08:00.038Z,26.89
2018-06-15T14:10:33.360Z,27.25
2018-06-15T14:13:06.700Z,27.28
2018-06-15T14:15:40.057Z,27.67
2018-06-15T14:18:13.367Z,28.21
2018-06-15T14:20:46.716Z,28.84
2018-06-15T14:23:20.037Z,29.15
2018-06-15T14:25:53.420Z,30.48
2018-06-15T14:28:26.880Z,29.28
2018-06-15T14:31:02.519Z,28.91
2018-06-15T14:33:35.951Z,28.78
2018-06-15T14:36:09.830Z,29.39
2018-06-15T14:38:43.179Z,29.19
2018-06-15T14:41:16.489Z,28.58
2018-06-15T14:43:49.958Z,28.50
2018-06-15T14:46:23.252Z,29.03
2018-06-15T14:48:56.577Z,29.86
2018-06-15T14:51:29.938Z,29.44
2018-06-15T14:54:05.644Z,29.22
2018-06-15T14:56:39.119Z,30.37
2018-06-15T14:59:12.455Z,29.05
2018-06-15T15:01:47.001Z,29.45
2018-06-15T15:04:20.502Z,26.81
2018-06-15T15:06:53.898Z,27.85
2018-06-15T15:09:27.237Z,28.60
2018-06-15T15:12:01.501Z,28.46
2018-06-15T15:14:34.796Z,28.81
2018-06-15T15:17:08.446Z,29.26
2018-06-15T15:19:41.793Z,27.86
2018-06-15T15:22:15.144Z,28.58
2018-06-15T15:24:48.465Z,28.88
2018-06-15T15:27:21.825Z,27.92
2018-06-15T15:29:55.173Z,27.02
2018-06-15T15:32:28.521Z,29.85
2018-06-15T15:35:02.100Z,28.59
2018-06-15T15:37:35.434Z,29.48
2018-06-15T15:40:08.717Z,29.64
2018-06-15T15:42:42.032Z,29.60
2018-06-15T15:45:15.321Z,29.58
2018-06-15T15:47:48.633Z,28.49
2018-06-15T15:50:21.960Z,28.46
2018-06-15T15:52:55.268Z,29.61
2018-06-15T15:55:28.570Z,29.69
2018-06-15T15:58:02.929Z,28.40
2018-06-15T16:00:36.225Z,28.42
2018-06-15T16:03:09.550Z,29.91
2018-06-15T16:05:42.866Z,28.96
2018-06-15T16:08:16.220Z,28.64
2018-06-15T16:10:49.532Z,27.63
2018-06-15T16:13:23.530Z,28.05
2018-06-15T16:15:56.910Z,28.48
2018-06-15T16:18:30.968Z,28.75
2018-06-15T16:21:04.345Z,29.11
2018-06-15T16:23:38.509Z,28.65
2018-06-15T16:26:11.828Z,28.63
2018-06-15T16:28:45.176Z,28.38
2018-06-15T16:31:18.476Z,28.61
2018-06-15T16:33:51.829Z,28.38
2018-06-15T16:36:25.230Z,28.26
2018-06-15T16:38:58.827Z,28.92
2018-06-15T16:41:32.189Z,28.37
2018-06-15T16:44:05.597Z,29.34
2018-06-15T16:46:38.921Z,28.97
2018-06-15T16:49:12.246Z,28.96
2018-06-15T16:51:45.731Z,28.35
2018-06-15T16:54:19.147Z,29.62
2018-06-15T16:56:52.463Z,30.00
2018-06-15T16:59:25.781Z,30.41
2018-06-15T17:01:59.135Z,30.10
2018-06-15T17:04:32.449Z,29.86
2018-06-15T17:07:05.834Z,30.20
2018-06-15T17:09:39.387Z,29.97
2018-06-15T17:12:12.858Z,29.40
2018-06-15T17:14:46.193Z,29.26
2018-06-15T17:17:19.548Z,30.42
2018-06-15T17:19:52.948Z,30.54
2018-06-15T17:22:26.245Z,30.24
2018-06-15T17:25:00.552Z,29.96
2018-06-15T17:27:34.201Z,30.15
2018-06-15T17:30:07.636Z,29.07
2018-06-15T17:32:41.104Z,29.39
2018-06-15T17:35:14.436Z,27.98
2018-06-15T17:37:47.758Z,29.65
2018-06-15T17:40:21.131Z,29.77
2018-06-15T17:42:54.497Z,30.14
2018-06-15T17:45:27.826Z,30.62
2018-06-15T17:48:01.180Z,29.89
2018-06-15T17:50:34.566Z,29.97
2018-06-15T17:53:07.885Z,30.77
2018-06-15T17:55:41.282Z,30.94
2018-06-15T17:58:14.612Z,30.33
2018-06-15T18:00:47.973Z,31.15
2018-06-15T18:03:21.578Z,31.69
2018-06-15T18:05:54.980Z,30.96
2018-06-15T18:08:28.300Z,30.99
2018-06-15T18:11:02.420Z,31.70
2018-06-15T18:13:35.717Z,31.57
2018-06-15T18:16:09.057Z,31.45
2018-06-15T18:18:42.361Z,31.16
2018-06-15T18:21:15.720Z,31.62
2018-06-15T18:23:49.219Z,31.78
2018-06-15T18:26:22.556Z,32.31
2018-06-15T18:28:55.901Z,32.68
2018-06-15T18:31:29.252Z,32.17
2018-06-15T18:34:02.577Z,32.76
2018-06-15T18:36:35.908Z,33.03
2018-06-15T18:39:12.533Z,32.92
2018-06-15T18:41:45.908Z,32.71
2018-06-15T18:44:19.239Z,33.80
2018-06-15T18:46:52.554Z,33.81
2018-06-15T18:49:25.885Z,33.21
2018-06-15T18:51:59.185Z,34.18
2018-06-15T18:54:32.515Z,34.13
2018-06-15T18:57:06.281Z,35.07
2018-06-15T18:59:39.614Z,34.58
2018-06-15T19:02:12.924Z,34.07
2018-06-15T19:04:46.272Z,34.22
2018-06-15T19:07:19.587Z,34.39
2018-06-15T19:09:52.904Z,34.39
2018-06-15T19:12:27.296Z,35.18
2018-06-15T19:15:00.720Z,36.20
2018-06-15T19:17:34.040Z,34.51
2018-06-15T19:20:07.382Z,35.47
2018-06-15T19:22:40.773Z,34.94
2018-06-15T19:25:14.115Z,34.98
2018-06-15T19:27:47.416Z,35.20
2018-06-15T19:30:20.736Z,35.14
2018-06-15T19:32:54.050Z,35.16
2018-06-15T19:35:27.398Z,35.61
2018-06-15T19:38:02.749Z,35.99
2018-06-15T19:40:36.109Z,38.10
2018-06-15T19:43:09.528Z,38.19
2018-06-15T19:45:42.888Z,37.23
2018-06-15T19:48:16.216Z,36.56
2018-06-15T19:50:49.580Z,39.33
2018-06-15T19:53:22.905Z,38.25
2018-06-15T19:55:56.290Z,36.87
2018-06-15T19:58:30.949Z,37.45
2018-06-15T20:01:04.286Z,38.07
2018-06-15T20:03:37.651Z,38.59
2018-06-15T20:06:11.076Z,39.05
2018-06-15T20:08:44.405Z,38.88
2018-06-15T20:11:17.776Z,38.99
2018-06-15T20:13:51.086Z,38.83
2018-06-15T20:16:24.476Z,38.24
2018-06-15T20:18:57.821Z,37.91
2018-06-15T20:21:31.898Z,37.80
2018-06-15T20:24:05.220Z,38.34
2018-06-15T20:26:38.624Z,38.74
2018-06-15T20:29:12.243Z,38.49
2018-06-15T20:31:45.600Z,38.95
2018-06-15T20:34:19.031Z,39.29
2018-06-15T20:36:52.417Z,39.46
2018-06-15T20:39:25.728Z,39.94
2018-06-15T20:41:59.100Z,39.94
2018-06-15T20:44:32.395Z,40.92
2018-06-15T20:47:05.721Z,41.02
2018-06-15T20:49:39.055Z,41.02
2018-06-15T20:52:12.582Z,41.73
2018-06-15T20:54:55.657Z,42.65
2018-06-15T20:57:33.889Z,42.48
2018-06-15T21:00:07.236Z,41.72
2018-06-15T21:02:41.699Z,42.04
2018-06-15T21:05:15.153Z,43.20
2018-06-15T21:07:48.666Z,43.18
2018-06-15T21:10:22.211Z,43.55
2018-06-15T21:12:55.577Z,43.62
2018-06-15T21:15:29.053Z,43.87
2018-06-15T21:18:02.364Z,43.75
2018-06-15T21:20:35.668Z,43.70
2018-06-15T21:23:09.308Z,43.93
2018-06-15T21:25:42.685Z,43.53
2018-06-15T21:28:16.138Z,44.00
2018-06-15T21:30:49.492Z,44.25
2018-06-15T21:33:22.977Z,44.50
2018-06-15T21:35:56.481Z,44.81
2018-06-15T21:38:31.108Z,44.18
2018-06-15T21:41:04.396Z,45.43
2018-06-15T21:43:37.815Z,46.54
2018-06-15T21:46:11.253Z,44.92
2018-06-15T21:48:44.677Z,44.35
2018-06-15T21:51:18.121Z,44.86
2018-06-15T21:53:51.572Z,44.65
2018-06-15T21:56:25.192Z,44.11
2018-06-15T21:58:58.582Z,43.87
2018-06-15T22:01:31.927Z,43.90
2018-06-15T22:04:05.274Z,44.19
2018-06-15T22:06:39.000Z,43.88
2018-06-15T22:09:12.422Z,44.60
2018-06-15T22:11:45.747Z,44.93
2018-06-15T22:14:19.174Z,45.17
2018-06-15T22:16:53.327Z,45.48
2018-06-15T22:19:26.790Z,45.53
2018-06-15T22:22:00.117Z,46.33
2018-06-15T22:24:33.428Z,46.26
2018-06-15T22:27:06.891Z,46.05
2018-06-15T22:29:40.419Z,47.38
2018-06-15T22:32:13.941Z,48.13
2018-06-15T22:34:47.263Z,48.10
2018-06-15T22:37:20.641Z,48.11
2018-06-15T22:39:54.047Z,47.61
2018-06-15T22:42:27.341Z,47.81
2018-06-15T22:45:01.083Z,46.92
2018-06-15T22:47:34.393Z,47.28
2018-06-15T22:50:07.810Z,47.56
2018-06-15T22:52:41.229Z,47.43
2018-06-15T22:55:26.745Z,46.73
2018-06-15T22:58:00.168Z,46.46
2018-06-15T23:00:33.489Z,47.38
2018-06-15T23:03:06.926Z,46.72
2018-06-15T23:05:40.322Z,46.38
2018-06-15T23:08:13.657Z,46.81
2018-06-15T23:10:47.002Z,46.70
2018-06-15T23:13:20.409Z,46.70
2018-06-15T23:15:53.915Z,47.39
2018-06-15T23:18:32.947Z,47.03
2018-06-15T23:21:06.294Z,47.17
2018-06-15T23:23:39.911Z,47.40
2018-06-15T23:26:13.229Z,47.61
2018-06-15T23:28:46.632Z,47.65
2018-06-15T23:31:20.076Z,47.97
2018-06-15T23:33:53.521Z,47.73
2018-06-15T23:36:26.881Z,48.00
2018-06-15T23:39:00.228Z,48.38
2018-06-15T23:41:33.526Z,48.96
2018-06-15T23:44:07.056Z,49.09
2018-06-15T23:46:40.418Z,49.12
2018-06-15T23:49:13.757Z,49.08
2018-06-15T23:51:47.128Z,49.57
2018-06-15T23:54:20.477Z,49.12
2018-06-15T23:56:53.921Z,49.62
2018-06-15T23:59:27.348Z,49.88
